Relevés horaires Koksijde (Belgique)


Relevés horaires à Koksijde - Jeudi 02 Sept. 2021
Heure UTC1 Température [°C] Vent [km/h] Hum. [%] Pres.4 [hPa] Visi. [Km] Nébu. [octa] Préc.5 [mm] Cond.
2m. Res. Ros. Dir.2 Vit. Moy. Raf.3
23:00 15.5 15.5 14.0 NE 5.6 -- 9.3 91 1024(-0.2/3h) 6 -- -- --
22:00 15.5 15.5 13.6 NE 7.4 -- 11.1 88 1024.2(0.0/3h) 9 -- -- --
21:00 15.6 15.6 13.4 NE 7.4 -- 14.8 87 1024.2(0.0/3h) 11 0/8 -- --
20:00 15.6 15.6 13.0 NE 7.4 -- 13.0 85 1024.2(-0.2/3h) 12 0/8 -- --
19:00 15.9 15.8 12.9 NE 9.3 -- 14.8 82 1024.2(-0.8/3h) 13 0/8 -- --
18:00 16.6 16.6 12.9 NE 9.3 -- 20.4 79 1024.2(-1.3/3h) 14 -- -- --
17:00 17.6 17.6 12.9 NE 11.1 -- 18.5 74 1024.5(-1.6/3h) 17 0/8 -- --
16:00 18.4 18.3 13.4 NNE 14.8 -- 20.4 73 1025(-1.6/3h) 17 0/8 -- --
15:00 18.8 18.8 12.2 NNE 13.0 -- 20.4 65 1025.7(-1.0/3h) 18 0/8 -- --
14:00 19.3 19.3 11.5 N 13.0 -- 18.5 61 1026.2(-1.0/3h) 18 1/8 -- --
13:00 19.0 19.0 11.1 NNE 11.1 -- 18.5 60 1026.7(-0.9/3h) 18 2/8 -- --
12:00 18.7 18.2 11.1 NE 24.1 -- 16.7 61 1026.8(-1.0/3h) 18 3/8 0/6h
--
11:00 18.0 18.0 10.5 ENE 9.3 -- 14.8 62 1027.2(-0.4/3h) 18 4/8 -- --
10:00 17.7 17.7 10.4 ENE 7.4 -- 13.0 62 1027.7(0.0/3h) 18 6/8 -- --
09:00 17.0 17.0 10.2 ENE 7.4 -- 13.0 64 1027.7(0.3/3h) 15 7/8 -- --
08:00 16.5 16.5 11.0 E 7.4 -- 11.1 70 1027.7(0.3/3h) 12 7/8 -- --
07:00 16.2 16.2 10.3 ENE 5.6 -- 11.1 68 1027.7(0.1/3h) 17 -- -- --
06:00 15.6 15.6 11.0 E 5.6 -- 11.1 74 1027.5(-0.2/3h) 12 7/8 -- --
05:00 15.6 15.6 11.4 ENE 3.7 -- 9.3 76 1027.4(-0.6/3h) 12 7/8 -- --
04:00 15.7 15.7 11.1 ENE 3.7 -- 7.4 74 1027.5(-0.5/3h) 18 -- -- --
03:00 15.5 15.5 11.0 NNO 3.7 -- 11.1 75 1027.7(-0.7/3h) 14 -- -- --
02:00 15.8 15.8 10.6 NE 3.7 -- 9.3 71 1028(-0.3/3h) 15 -- -- --
01:00 16.0 16.0 10.6 E 5.6 -- 11.1 70 1028(-0.5/3h) 18 -- -- --
00:00 15.8 15.8 11.2 ENE 3.7 -- 13.0 74 1028.5(-0.1/3h) 15 -- -- --

1 Coordinated Universal Time. Actuellement il est 00:00 locale et 22:00 UTC.

2 Le vent souffle depuis la direction indiquée vers la direction oposée.

3 Les rafales max. sont disponible 40 min après l'heure du relevé.

4 Pour les stations d'altitude (plus de 600m) le géopotentiel du niveau le plus proche de la pression obligatoire est indiqué.

5 Les stations disposant d'un diffuseur peuvent indiquer "trace". Cela signifie que des précipitations ont touchés le sol mais que la quantité est inférieure à 0.1 mm.

Récapitulatif de la journée
Température [°C] Vent [km/h] Ensoleillement4 [h] Precipitations totale5 [mm] Pression [Hpa]
Min1 Max.2 Moy.3 Max. Min Max.
15.5 19.6 0 20.4 0 h 0 min 0 1024.0 1028.5

1 Température minimale relevée entre 18:00 UTC la veille et 18:00 UTC le jour donné.

2 Température maximale relevée entre 06:00 UTC le jour donné et 06:00 UTC le lendemain.

3 Vent moyen de la journée basé sur les relevés horaires.

4 Ensoleillement en heures relevé entre 06:00 UTC la veille et 06:00 UTC le jour donné.

5 Précipitations totales tombées entre 06:00 UTC la jour donné et 06:00 UTC le lendemain.

Graphiques horaires